createdAt,value
2023-01-31T00:01:37.440Z,79.34
2023-01-31T00:06:43.185Z,79.33
2023-01-31T00:11:44.989Z,78.25
2023-01-31T00:16:48.657Z,77.11
2023-01-31T00:21:50.520Z,74.78
2023-01-31T00:26:57.099Z,75.12
2023-01-31T00:32:01.167Z,73.63
2023-01-31T00:37:03.212Z,72.75
2023-01-31T00:42:07.746Z,73.99
2023-01-31T00:47:09.530Z,74.28
2023-01-31T00:52:11.487Z,75.71
2023-01-31T00:57:13.316Z,77.99
2023-01-31T01:02:15.356Z,79.29
2023-01-31T01:07:17.561Z,79.14
2023-01-31T01:12:19.323Z,79.38
2023-01-31T01:17:22.258Z,78.83
2023-01-31T01:22:24.252Z,79.01
2023-01-31T01:27:27.352Z,78.06
2023-01-31T01:32:29.871Z,76.81
2023-01-31T01:37:31.768Z,76.44
2023-01-31T01:42:34.900Z,76.84
2023-01-31T01:47:42.646Z,78.43
2023-01-31T01:52:47.546Z,80.56
2023-01-31T01:57:56.919Z,79.56
2023-01-31T02:02:59.793Z,77.14
2023-01-31T02:08:02.347Z,75.01
2023-01-31T02:13:04.736Z,73.43
2023-01-31T02:18:07.499Z,73.70
2023-01-31T02:23:34.750Z,72.05
2023-01-31T02:28:55.531Z,73.00
2023-01-31T02:34:12.320Z,73.88
2023-01-31T02:39:37.737Z,73.88
2023-01-31T02:44:59.250Z,73.46
2023-01-31T02:50:21.806Z,73.99
2023-01-31T02:55:49.909Z,73.60
2023-01-31T03:00:56.323Z,72.83
2023-01-31T03:06:33.552Z,72.81
2023-01-31T03:11:42.220Z,71.69
2023-01-31T03:17:09.523Z,73.39
2023-01-31T03:22:16.385Z,73.60
2023-01-31T03:27:20.873Z,71.51
2023-01-31T03:32:27.755Z,70.30
2023-01-31T03:37:55.107Z,70.68
2023-01-31T03:43:00.798Z,69.33
2023-01-31T03:48:06.629Z,70.01
2023-01-31T03:53:14.154Z,70.67
2023-01-31T03:58:20.785Z,73.85
2023-01-31T04:03:43.571Z,78.13
2023-01-31T04:08:45.496Z,79.97
2023-01-31T04:13:47.644Z,79.27
2023-01-31T04:18:49.445Z,78.04
2023-01-31T04:23:51.342Z,76.54
2023-01-31T04:28:53.164Z,74.84
2023-01-31T04:33:54.984Z,74.25
2023-01-31T04:38:56.871Z,74.37
2023-01-31T04:43:58.634Z,74.38
2023-01-31T04:49:00.484Z,74.56
2023-01-31T04:54:02.351Z,75.13
2023-01-31T04:59:04.280Z,75.66
2023-01-31T05:04:06.067Z,76.76
2023-01-31T05:09:07.930Z,77.49
2023-01-31T05:14:10.138Z,80.57
2023-01-31T05:19:12.273Z,82.93
2023-01-31T05:24:14.025Z,82.13
2023-01-31T05:29:15.764Z,81.39
2023-01-31T05:34:18.188Z,80.22
2023-01-31T05:39:20.123Z,79.09
2023-01-31T05:44:22.024Z,77.12
2023-01-31T05:49:23.741Z,76.99
2023-01-31T05:54:26.068Z,76.37
2023-01-31T05:59:31.064Z,75.48
2023-01-31T06:04:33.505Z,75.35
2023-01-31T06:09:35.354Z,74.75
2023-01-31T06:14:37.137Z,74.45
2023-01-31T06:19:38.964Z,73.69
2023-01-31T06:24:40.960Z,73.95
2023-01-31T06:29:42.872Z,74.54
2023-01-31T06:34:44.801Z,74.29
2023-01-31T06:39:46.551Z,74.45
2023-01-31T06:44:48.398Z,73.57
2023-01-31T06:49:50.185Z,73.28
2023-01-31T06:54:52.031Z,72.64
2023-01-31T06:59:53.835Z,72.50
2023-01-31T07:21:58.932Z,70.28
2023-01-31T07:27:01.309Z,70.94
2023-01-31T07:32:03.104Z,70.17
2023-01-31T07:37:04.952Z,70.54
2023-01-31T07:42:06.600Z,71.11
2023-01-31T07:47:08.279Z,70.90
2023-01-31T07:52:09.962Z,70.93
2023-01-31T07:57:13.221Z,70.41
2023-01-31T08:02:35.788Z,70.44
2023-01-31T08:07:37.818Z,69.69
2023-01-31T08:12:39.649Z,69.42
2023-01-31T08:17:41.361Z,69.03
2023-01-31T08:22:42.976Z,67.42
2023-01-31T08:27:44.729Z,66.52
2023-01-31T08:32:46.386Z,66.79
2023-01-31T08:37:48.113Z,66.38
2023-01-31T08:42:56.706Z,65.32
2023-01-31T08:48:00.101Z,64.88
2023-01-31T08:53:04.740Z,64.30
2023-01-31T08:58:06.577Z,63.73
2023-01-31T09:03:17.138Z,64.09
2023-01-31T09:08:18.900Z,63.92
2023-01-31T09:13:20.616Z,63.77
2023-01-31T09:18:22.342Z,63.33
2023-01-31T09:23:24.107Z,62.59
2023-01-31T09:28:26.283Z,63.16
2023-01-31T09:33:28.691Z,63.37
2023-01-31T09:38:31.297Z,62.68
2023-01-31T09:43:40.631Z,62.67
2023-01-31T09:48:47.715Z,63.42
2023-01-31T09:53:49.662Z,63.27
2023-01-31T09:59:07.804Z,64.39
2023-01-31T10:04:26.335Z,65.15
2023-01-31T10:09:38.802Z,65.33
2023-01-31T10:14:57.761Z,65.37
2023-01-31T10:20:07.184Z,64.15
2023-01-31T10:25:28.126Z,63.04
2023-01-31T10:30:42.667Z,63.05
2023-01-31T10:35:46.707Z,63.21
2023-01-31T10:40:54.845Z,63.32
2023-01-31T10:46:00.298Z,61.01
2023-01-31T10:51:20.733Z,59.55
2023-01-31T10:56:33.564Z,62.86
2023-01-31T11:01:36.491Z,62.46
2023-01-31T11:06:38.296Z,61.32
2023-01-31T11:11:52.931Z,61.10
2023-01-31T11:17:05.756Z,61.45
2023-01-31T11:22:09.354Z,61.59
2023-01-31T11:27:22.604Z,61.89
2023-01-31T11:32:28.579Z,60.72
2023-01-31T11:37:34.027Z,60.85
2023-01-31T11:42:51.317Z,60.80
2023-01-31T11:47:55.759Z,61.33
2023-01-31T11:53:00.518Z,61.07
2023-01-31T11:58:08.553Z,60.50
2023-01-31T12:03:16.635Z,60.92
2023-01-31T12:08:39.602Z,61.70
2023-01-31T12:13:50.168Z,61.97
2023-01-31T12:19:01.144Z,60.94
2023-01-31T12:24:25.026Z,61.33
2023-01-31T12:30:03.190Z,61.37
2023-01-31T12:35:23.334Z,62.80
2023-01-31T12:40:39.022Z,65.45
2023-01-31T12:45:43.824Z,65.13
2023-01-31T12:51:01.943Z,60.98
2023-01-31T12:56:04.685Z,59.81
2023-01-31T13:31:22.117Z,61.50
2023-01-31T13:36:30.879Z,59.55
2023-01-31T13:41:33.977Z,63.39
2023-01-31T13:46:45.257Z,62.52
2023-01-31T13:51:56.454Z,61.66
2023-01-31T13:57:00.427Z,62.89
2023-01-31T14:02:05.304Z,63.79
2023-01-31T14:07:07.161Z,65.22
2023-01-31T14:12:15.648Z,65.45
2023-01-31T14:17:23.475Z,66.15
2023-01-31T14:22:35.250Z,67.68
2023-01-31T14:28:01.715Z,67.62
2023-01-31T14:33:12.743Z,68.12
2023-01-31T14:38:36.480Z,67.34
2023-01-31T14:44:12.195Z,66.29
2023-01-31T14:49:41.339Z,66.32
2023-01-31T14:54:59.751Z,66.92
2023-01-31T15:00:18.471Z,66.29
2023-01-31T15:05:32.217Z,65.56
2023-01-31T15:11:02.209Z,64.94
2023-01-31T15:16:09.175Z,64.91
2023-01-31T15:21:11.888Z,64.74
2023-01-31T15:26:16.883Z,64.63
2023-01-31T15:31:29.722Z,64.18
2023-01-31T15:36:37.396Z,63.87
2023-01-31T15:41:45.812Z,64.20
2023-01-31T15:46:51.948Z,65.21
2023-01-31T15:52:17.275Z,64.11
2023-01-31T15:57:20.543Z,64.03
2023-01-31T16:02:29.183Z,63.60
2023-01-31T16:07:31.897Z,62.51
2023-01-31T16:12:40.591Z,62.86
2023-01-31T16:17:42.449Z,63.87
2023-01-31T16:22:56.175Z,64.37
2023-01-31T16:28:02.293Z,65.41
2023-01-31T16:33:04.094Z,67.03
2023-01-31T16:38:16.640Z,66.93
2023-01-31T16:43:30.339Z,66.71
2023-01-31T16:48:36.991Z,66.23
2023-01-31T16:53:41.652Z,66.28
2023-01-31T16:58:50.936Z,65.34
2023-01-31T17:04:06.027Z,65.86
2023-01-31T17:09:13.961Z,66.14
2023-01-31T17:14:16.169Z,67.18
2023-01-31T17:19:18.113Z,66.88
2023-01-31T17:24:22.638Z,66.77
2023-01-31T17:29:26.043Z,67.45
2023-01-31T17:34:27.851Z,67.51
2023-01-31T17:39:29.714Z,68.48
2023-01-31T17:44:31.971Z,69.50
2023-01-31T17:49:34.978Z,68.70
2023-01-31T17:54:37.465Z,70.17
2023-01-31T17:59:39.424Z,70.54
2023-01-31T18:04:41.168Z,69.54
2023-01-31T18:09:43.526Z,70.10
2023-01-31T18:14:45.671Z,70.25
2023-01-31T18:19:47.840Z,70.02
2023-01-31T18:24:49.601Z,69.50
2023-01-31T18:35:07.705Z,70.12
2023-01-31T18:48:39.085Z,70.58
2023-01-31T18:53:43.928Z,70.87
2023-01-31T18:58:49.284Z,71.34
2023-01-31T19:47:11.243Z,68.72
2023-01-31T19:52:12.422Z,68.47
2023-01-31T20:02:56.724Z,67.89
2023-01-31T20:08:00.199Z,68.58
2023-01-31T20:13:03.026Z,69.91
2023-01-31T20:18:05.592Z,71.48
2023-01-31T20:23:09.186Z,70.98
2023-01-31T22:02:30.908Z,63.53
2023-01-31T22:07:32.783Z,63.52
2023-01-31T22:12:35.901Z,64.05
2023-01-31T22:17:37.823Z,64.77
2023-01-31T22:22:39.530Z,65.97
2023-01-31T22:27:41.281Z,65.91
2023-01-31T22:32:43.092Z,66.95
2023-01-31T22:37:44.909Z,68.59
2023-01-31T22:42:46.600Z,68.98
2023-01-31T22:47:48.313Z,69.28
2023-01-31T22:52:50.652Z,67.50
2023-01-31T22:57:52.523Z,68.11
2023-01-31T23:02:54.185Z,66.88
2023-01-31T23:07:57.504Z,65.87
2023-01-31T23:12:59.247Z,66.39
2023-01-31T23:18:01.414Z,67.02
2023-01-31T23:23:03.111Z,68.38
2023-01-31T23:28:11.537Z,70.15
2023-01-31T23:33:13.771Z,70.61
2023-01-31T23:38:16.482Z,69.21
2023-01-31T23:43:18.506Z,69.00
2023-01-31T23:48:20.327Z,69.47
2023-01-31T23:53:22.012Z,69.40
2023-01-31T23:58:23.696Z,67.45
